createdAt,value
2018-03-20T00:00:02.601Z,57.73
2018-03-20T00:01:02.612Z,57.92
2018-03-20T00:02:02.632Z,57.26
2018-03-20T00:03:02.639Z,57.23
2018-03-20T00:04:02.658Z,57.33
2018-03-20T00:05:02.667Z,57.45
2018-03-20T00:06:02.683Z,57.33
2018-03-20T00:07:02.696Z,57.61
2018-03-20T00:08:02.701Z,57.99
2018-03-20T00:09:02.716Z,58.28
2018-03-20T00:10:02.736Z,58.59
2018-03-20T00:11:02.743Z,58.40
2018-03-20T00:12:02.754Z,57.17
2018-03-20T00:13:02.888Z,57.45
2018-03-20T00:14:02.840Z,57.35
2018-03-20T00:15:02.793Z,58.02
2018-03-20T00:16:02.810Z,58.11
2018-03-20T00:17:02.823Z,57.14
2018-03-20T00:18:02.835Z,57.52
2018-03-20T00:19:02.845Z,57.83
2018-03-20T00:20:02.857Z,57.92
2018-03-20T00:21:02.870Z,58.18
2018-03-20T00:22:02.881Z,58.56
2018-03-20T00:23:02.900Z,58.47
2018-03-20T00:24:02.912Z,58.37
2018-03-20T00:25:02.921Z,58.68
2018-03-20T00:26:02.935Z,58.56
2018-03-20T00:27:02.949Z,58.30
2018-03-20T00:28:02.963Z,58.02
2018-03-20T00:29:02.972Z,57.54
2018-03-20T00:30:02.986Z,58.02
2018-03-20T00:31:03.001Z,58.59
2018-03-20T00:32:03.013Z,58.97
2018-03-20T00:33:03.023Z,58.56
2018-03-20T00:34:03.038Z,59.06
2018-03-20T00:35:03.051Z,58.84
2018-03-20T00:36:03.065Z,58.84
2018-03-20T00:37:03.072Z,58.75
2018-03-20T00:38:03.084Z,59.03
2018-03-20T00:39:03.098Z,59.60
2018-03-20T00:40:03.169Z,59.22
2018-03-20T00:41:03.131Z,58.30
2018-03-20T00:42:03.138Z,57.99
2018-03-20T00:43:03.165Z,57.83
2018-03-20T00:44:03.168Z,57.45
2018-03-20T00:45:03.176Z,57.07
2018-03-20T00:46:03.193Z,56.79
2018-03-20T00:47:03.201Z,56.79
2018-03-20T00:48:03.214Z,56.79
2018-03-20T00:49:03.226Z,56.60
2018-03-20T00:50:03.246Z,56.70
2018-03-20T00:51:03.251Z,56.85
2018-03-20T00:52:03.264Z,57.92
2018-03-20T00:53:03.281Z,57.90
2018-03-20T00:54:03.293Z,58.28
2018-03-20T00:55:03.306Z,58.02
2018-03-20T00:56:03.314Z,57.92
2018-03-20T00:57:03.326Z,57.73
2018-03-20T00:58:03.336Z,57.92
2018-03-20T00:59:03.355Z,57.92
2018-03-20T01:00:03.366Z,57.26
2018-03-20T01:01:03.375Z,56.70
2018-03-20T01:02:03.399Z,56.60
2018-03-20T01:03:03.401Z,57.26
2018-03-20T01:04:03.414Z,56.98
2018-03-20T01:05:03.428Z,57.23
2018-03-20T01:06:03.440Z,57.23
2018-03-20T01:07:03.500Z,57.99
2018-03-20T01:08:03.463Z,58.18
2018-03-20T01:09:03.476Z,58.37
2018-03-20T01:10:03.489Z,58.47
2018-03-20T01:11:03.508Z,58.56
2018-03-20T01:12:03.519Z,57.90
2018-03-20T01:13:03.527Z,57.90
2018-03-20T01:14:03.539Z,57.99
2018-03-20T01:15:03.550Z,57.90
2018-03-20T01:16:03.568Z,57.14
2018-03-20T01:17:03.580Z,57.61
2018-03-20T01:18:03.587Z,57.83
2018-03-20T01:19:03.600Z,57.71
2018-03-20T01:20:03.614Z,57.71
2018-03-20T01:21:03.632Z,57.92
2018-03-20T01:22:03.643Z,56.98
2018-03-20T01:23:03.651Z,56.41
2018-03-20T01:24:03.661Z,56.41
2018-03-20T01:25:03.672Z,56.85
2018-03-20T01:26:03.688Z,57.52
2018-03-20T01:27:03.702Z,57.54
2018-03-20T01:28:03.714Z,56.88
2018-03-20T01:29:03.728Z,56.32
2018-03-20T01:30:03.738Z,56.88
2018-03-20T01:31:03.781Z,57.35
2018-03-20T01:32:03.760Z,57.99
2018-03-20T01:33:03.780Z,58.28
2018-03-20T01:34:03.782Z,58.11
2018-03-20T01:35:03.802Z,57.54
2018-03-20T01:36:03.813Z,57.33
2018-03-20T01:37:03.830Z,57.54
2018-03-20T01:38:03.840Z,57.17
2018-03-20T01:39:03.848Z,57.45
2018-03-20T01:40:03.862Z,57.42
2018-03-20T01:41:03.873Z,57.17
2018-03-20T01:42:03.888Z,56.70
2018-03-20T01:43:03.896Z,56.29
2018-03-20T01:44:03.962Z,57.14
2018-03-20T01:45:03.917Z,56.79
2018-03-20T01:46:03.933Z,56.32
2018-03-20T01:47:03.944Z,56.41
2018-03-20T01:48:03.961Z,56.29
2018-03-20T01:49:03.969Z,56.38
2018-03-20T01:50:04.001Z,57.49
2018-03-20T01:51:03.993Z,58.47
2018-03-20T01:52:04.006Z,59.41
2018-03-20T01:53:04.020Z,59.50
2018-03-20T01:54:04.031Z,57.92
2018-03-20T01:55:04.037Z,57.35
2018-03-20T01:56:04.067Z,56.76
2018-03-20T01:57:04.064Z,56.76
2018-03-20T01:58:04.076Z,57.23
2018-03-20T01:59:04.098Z,57.14
2018-03-20T02:00:04.100Z,56.79
2018-03-20T02:01:04.126Z,56.88
2018-03-20T02:02:04.126Z,56.22
2018-03-20T02:03:04.135Z,56.57
2018-03-20T02:04:04.150Z,56.76
2018-03-20T02:05:04.159Z,56.95
2018-03-20T02:06:04.172Z,56.70
2018-03-20T02:07:04.185Z,56.57
2018-03-20T02:08:04.210Z,56.95
2018-03-20T02:09:04.229Z,58.18
2018-03-20T02:10:04.222Z,58.02
2018-03-20T02:11:04.232Z,57.04
2018-03-20T02:12:04.238Z,56.95
2018-03-20T02:13:04.264Z,56.85
2018-03-20T02:14:04.272Z,56.76
2018-03-20T02:15:04.280Z,56.60
2018-03-20T02:16:04.316Z,55.84
2018-03-20T02:17:04.317Z,55.84
2018-03-20T02:18:04.318Z,56.10
2018-03-20T02:19:04.333Z,56.76
2018-03-20T02:20:04.337Z,56.85
2018-03-20T02:21:04.348Z,56.67
2018-03-20T02:22:04.360Z,57.33
2018-03-20T02:23:04.374Z,57.99
2018-03-20T02:24:04.385Z,58.09
2018-03-20T02:25:04.404Z,57.99
2018-03-20T02:26:04.446Z,57.52
2018-03-20T02:27:04.436Z,57.14
2018-03-20T02:28:04.436Z,56.85
2018-03-20T02:29:04.444Z,56.85
2018-03-20T02:30:04.458Z,56.48
2018-03-20T02:31:04.474Z,57.61
2018-03-20T02:32:04.483Z,56.76
2018-03-20T02:33:04.488Z,56.20
2018-03-20T02:34:04.505Z,56.51
2018-03-20T02:35:04.533Z,56.20
2018-03-20T02:36:04.531Z,56.67
2018-03-20T02:37:04.548Z,57.71
2018-03-20T02:38:04.555Z,58.65
2018-03-20T02:39:04.561Z,59.03
2018-03-20T02:40:04.587Z,58.47
2018-03-20T02:41:04.590Z,58.56
2018-03-20T02:42:04.599Z,57.99
2018-03-20T02:43:04.615Z,57.54
2018-03-20T02:44:04.621Z,56.85
2018-03-20T02:45:04.637Z,56.51
2018-03-20T02:46:04.707Z,56.70
2018-03-20T02:47:04.678Z,56.67
2018-03-20T02:48:04.679Z,56.85
2018-03-20T02:49:04.752Z,56.85
2018-03-20T02:50:04.754Z,57.52
2018-03-20T02:51:04.799Z,57.14
2018-03-20T02:52:04.747Z,58.25
2018-03-20T02:53:04.845Z,58.75
2018-03-20T02:54:04.784Z,58.94
2018-03-20T02:55:04.852Z,59.31
2018-03-20T02:56:04.780Z,59.76
2018-03-20T02:57:04.929Z,59.85
2018-03-20T02:58:04.963Z,60.33
2018-03-20T02:59:04.804Z,61.46
2018-03-20T03:00:04.813Z,61.18
2018-03-20T03:01:04.822Z,60.61
2018-03-20T03:02:04.836Z,61.08
2018-03-20T03:03:04.846Z,60.52
2018-03-20T03:04:04.864Z,60.04
2018-03-20T03:05:04.872Z,60.70
2018-03-20T03:06:04.886Z,60.52
2018-03-20T03:07:04.898Z,60.61
2018-03-20T03:08:04.923Z,60.26
2018-03-20T03:09:04.960Z,60.93
2018-03-20T03:10:04.942Z,60.89
2018-03-20T03:11:04.950Z,60.52
2018-03-20T03:12:04.978Z,60.55
2018-03-20T03:13:05.033Z,60.26
2018-03-20T03:14:04.990Z,59.88
2018-03-20T03:15:05.000Z,59.31
2018-03-20T03:16:05.007Z,59.38
2018-03-20T03:17:05.018Z,59.76
2018-03-20T03:18:05.029Z,60.33
2018-03-20T03:19:05.045Z,60.14
2018-03-20T03:20:05.048Z,59.60
2018-03-20T03:21:05.065Z,59.31
2018-03-20T03:22:05.074Z,58.65
2018-03-20T03:23:05.087Z,59.57
2018-03-20T03:24:05.101Z,60.42
2018-03-20T03:25:05.114Z,61.08
2018-03-20T03:26:05.134Z,61.83
2018-03-20T03:27:05.140Z,62.31
2018-03-20T03:28:05.146Z,62.97
2018-03-20T03:29:05.159Z,62.78
2018-03-20T03:30:05.173Z,62.78
2018-03-20T03:31:05.189Z,62.88
2018-03-20T03:32:05.200Z,62.50
2018-03-20T03:33:05.203Z,62.50
2018-03-20T03:34:05.220Z,62.50
2018-03-20T03:35:05.230Z,62.88
2018-03-20T03:36:05.238Z,62.88
2018-03-20T03:37:05.253Z,62.88
2018-03-20T03:38:05.270Z,62.78
2018-03-20T03:39:05.283Z,62.69
2018-03-20T03:40:05.289Z,62.78
2018-03-20T03:41:05.308Z,62.97
2018-03-20T03:42:05.314Z,62.59
2018-03-20T03:43:05.326Z,62.97
2018-03-20T03:44:05.336Z,63.16
2018-03-20T03:45:05.354Z,63.45
2018-03-20T03:46:05.364Z,63.35
2018-03-20T03:47:05.374Z,63.35
2018-03-20T03:48:05.382Z,63.45
2018-03-20T03:49:05.410Z,63.45
2018-03-20T03:50:05.412Z,63.45
2018-03-20T03:51:05.421Z,63.82
2018-03-20T03:52:05.438Z,63.73
2018-03-20T03:53:05.454Z,64.11
2018-03-20T03:54:05.459Z,64.11
2018-03-20T03:55:05.472Z,63.82
2018-03-20T03:56:05.479Z,63.92
2018-03-20T03:57:05.494Z,64.11
2018-03-20T03:58:05.499Z,63.92
2018-03-20T03:59:05.520Z,64.77
2018-03-20T04:00:05.528Z,65.05
2018-03-20T04:01:05.536Z,65.49
2018-03-20T04:02:05.555Z,65.53
2018-03-20T04:03:05.565Z,65.30
2018-03-20T04:04:05.583Z,65.72
2018-03-20T04:05:05.594Z,65.97
2018-03-20T04:06:05.599Z,66.35
2018-03-20T04:07:05.604Z,66.44
2018-03-20T04:08:05.621Z,66.63
2018-03-20T04:09:05.631Z,66.56
2018-03-20T04:10:05.650Z,66.66
2018-03-20T04:11:05.658Z,66.75
2018-03-20T04:12:05.670Z,66.47
2018-03-20T04:13:05.678Z,66.85
2018-03-20T04:14:05.690Z,67.10
2018-03-20T04:15:05.713Z,67.57
2018-03-20T04:16:05.717Z,67.29
2018-03-20T04:17:05.725Z,66.56
2018-03-20T04:18:05.769Z,66.00
2018-03-20T04:19:05.750Z,66.53
2018-03-20T04:20:05.759Z,66.56
2018-03-20T04:21:05.768Z,64.96
2018-03-20T04:22:05.867Z,65.05
2018-03-20T04:23:05.809Z,64.96
2018-03-20T04:24:05.809Z,66.00
2018-03-20T04:25:05.827Z,65.62
2018-03-20T04:26:05.839Z,65.72
2018-03-20T04:27:05.846Z,65.43
2018-03-20T04:28:05.859Z,65.34
2018-03-20T04:29:05.866Z,64.86
2018-03-20T04:30:05.874Z,66.28
2018-03-20T04:31:05.891Z,66.28
2018-03-20T04:32:05.898Z,65.72
2018-03-20T04:33:05.911Z,65.15
2018-03-20T04:34:05.960Z,66.00
2018-03-20T04:35:05.939Z,66.53
2018-03-20T04:36:05.947Z,67.76
2018-03-20T04:37:05.957Z,68.33
2018-03-20T04:38:05.964Z,68.90
2018-03-20T04:39:05.979Z,68.71
2018-03-20T04:40:05.994Z,68.23
2018-03-20T04:41:06.003Z,68.23
2018-03-20T04:42:06.011Z,68.42
2018-03-20T04:43:06.025Z,68.33
2018-03-20T04:44:06.036Z,68.42
2018-03-20T04:45:06.051Z,68.99
2018-03-20T04:46:06.069Z,69.18
2018-03-20T04:47:06.071Z,68.99
2018-03-20T04:48:06.084Z,68.99
2018-03-20T04:49:06.095Z,68.71
2018-03-20T04:50:06.104Z,68.17
2018-03-20T04:51:06.126Z,66.28
2018-03-20T04:52:06.127Z,66.19
2018-03-20T04:53:06.143Z,67.13
2018-03-20T04:54:06.150Z,67.95
2018-03-20T04:55:06.163Z,68.52
2018-03-20T04:56:06.174Z,68.71
2018-03-20T04:57:06.186Z,68.52
2018-03-20T04:58:06.198Z,68.52
2018-03-20T04:59:06.209Z,68.71
2018-03-20T05:00:06.218Z,69.46
2018-03-20T05:01:06.241Z,68.80
2018-03-20T05:02:06.243Z,68.99
2018-03-20T05:03:06.255Z,68.80
2018-03-20T05:04:06.264Z,69.27
2018-03-20T05:05:06.288Z,69.18
2018-03-20T05:06:06.287Z,69.18
2018-03-20T05:07:06.307Z,68.55
2018-03-20T05:08:06.310Z,67.22
2018-03-20T05:09:06.324Z,67.66
2018-03-20T05:10:06.332Z,68.99
2018-03-20T05:11:06.346Z,69.02
2018-03-20T05:12:06.350Z,67.70
2018-03-20T05:13:06.380Z,67.79
2018-03-20T05:14:06.377Z,68.14
2018-03-20T05:15:06.391Z,69.27
2018-03-20T05:16:06.400Z,69.93
2018-03-20T05:17:06.414Z,69.93
2018-03-20T05:18:06.424Z,69.65
2018-03-20T05:19:06.435Z,69.93
2018-03-20T05:20:06.452Z,70.50
2018-03-20T05:21:06.469Z,70.50
2018-03-20T05:22:06.470Z,70.50
2018-03-20T05:23:06.483Z,70.40
2018-03-20T05:24:06.496Z,70.40
2018-03-20T05:25:06.500Z,70.40
2018-03-20T05:26:06.510Z,70.31
2018-03-20T05:27:06.520Z,70.59
2018-03-20T05:28:06.539Z,70.21
2018-03-20T05:29:06.552Z,70.03
2018-03-20T05:30:06.564Z,69.12
2018-03-20T05:31:06.570Z,67.79
2018-03-20T05:32:06.579Z,67.60
2018-03-20T05:33:06.595Z,67.70
2018-03-20T05:34:06.605Z,67.89
2018-03-20T05:35:06.615Z,67.70
2018-03-20T05:36:06.623Z,66.00
2018-03-20T05:37:06.637Z,65.34
2018-03-20T05:38:06.653Z,65.81
2018-03-20T05:39:06.663Z,66.38
2018-03-20T05:40:06.693Z,65.53
2018-03-20T05:41:06.755Z,65.34
2018-03-20T05:42:06.706Z,65.81
2018-03-20T05:43:06.719Z,66.19
2018-03-20T05:44:06.713Z,66.56
2018-03-20T05:45:06.729Z,66.63
2018-03-20T05:46:06.739Z,67.95
2018-03-20T05:47:06.773Z,68.80
2018-03-20T05:48:06.760Z,68.61
2018-03-20T05:49:06.804Z,68.71
2018-03-20T05:50:06.787Z,68.71
2018-03-20T05:51:06.843Z,68.61
2018-03-20T05:52:06.807Z,68.71
2018-03-20T05:53:06.821Z,68.71
2018-03-20T05:54:06.830Z,68.52
2018-03-20T05:55:06.856Z,68.33
2018-03-20T05:56:06.851Z,68.04
2018-03-20T05:57:06.864Z,68.04
2018-03-20T05:58:06.872Z,67.76
2018-03-20T05:59:06.901Z,67.66
2018-03-20T06:00:06.895Z,67.89
2018-03-20T06:01:06.904Z,67.03
2018-03-20T06:02:06.916Z,66.75
2018-03-20T06:03:06.930Z,66.56
2018-03-20T06:04:06.940Z,66.47
2018-03-20T06:05:06.965Z,67.03
2018-03-20T06:06:06.974Z,66.75
2018-03-20T06:07:06.976Z,67.85
2018-03-20T06:08:06.987Z,68.33
2018-03-20T06:09:06.997Z,67.57
2018-03-20T06:10:07.013Z,67.13
2018-03-20T06:11:07.021Z,66.82
2018-03-20T06:12:07.031Z,66.38
2018-03-20T06:13:07.039Z,66.06
2018-03-20T06:14:07.053Z,65.81
2018-03-20T06:15:07.064Z,65.91
2018-03-20T06:16:07.108Z,66.66
2018-03-20T06:17:07.118Z,66.56
2018-03-20T06:18:07.109Z,66.25
2018-03-20T06:19:07.128Z,66.25
2018-03-20T06:20:07.122Z,66.35
2018-03-20T06:21:07.147Z,66.53
2018-03-20T06:22:07.160Z,65.91
2018-03-20T06:23:07.154Z,65.49
2018-03-20T06:24:07.163Z,65.68
2018-03-20T06:25:07.188Z,65.78
2018-03-20T06:26:07.193Z,66.44
2018-03-20T06:27:07.201Z,65.43
2018-03-20T06:28:07.208Z,64.86
2018-03-20T06:29:07.222Z,64.83
2018-03-20T06:30:07.240Z,64.64
2018-03-20T06:31:07.247Z,65.24
2018-03-20T06:32:07.263Z,65.24
2018-03-20T06:33:07.273Z,64.39
2018-03-20T06:34:07.286Z,64.96
2018-03-20T06:35:07.295Z,64.11
2018-03-20T06:36:07.307Z,64.07
2018-03-20T06:37:07.316Z,64.20
2018-03-20T06:38:07.342Z,62.40
2018-03-20T06:39:07.344Z,62.59
2018-03-20T06:40:07.351Z,62.78
2018-03-20T06:41:07.364Z,63.35
2018-03-20T06:42:07.370Z,63.82
2018-03-20T06:43:07.386Z,63.16
2018-03-20T06:44:07.409Z,61.93
2018-03-20T06:45:07.418Z,62.02
2018-03-20T06:46:07.426Z,62.69
2018-03-20T06:47:07.436Z,62.97
2018-03-20T06:48:07.445Z,63.26
2018-03-20T06:49:07.456Z,63.64
2018-03-20T06:50:07.469Z,63.64
2018-03-20T06:51:07.486Z,63.64
2018-03-20T06:52:07.489Z,63.45
2018-03-20T06:53:07.502Z,63.64
2018-03-20T06:54:07.515Z,63.16
2018-03-20T06:55:07.527Z,62.69
2018-03-20T06:56:07.542Z,63.04
2018-03-20T06:57:07.552Z,63.04
2018-03-20T06:58:07.559Z,63.54
2018-03-20T06:59:07.568Z,63.45
2018-03-20T07:00:07.597Z,62.69
2018-03-20T07:01:07.597Z,63.26
2018-03-20T07:02:07.647Z,62.69
2018-03-20T07:03:07.615Z,62.78
2018-03-20T07:04:07.626Z,62.66
2018-03-20T07:05:07.642Z,63.35
2018-03-20T07:06:07.650Z,61.83
2018-03-20T07:07:07.667Z,61.55
2018-03-20T07:08:07.673Z,60.64
2018-03-20T07:09:07.687Z,59.69
2018-03-20T07:10:07.694Z,59.88
2018-03-20T07:11:07.710Z,59.85
2018-03-20T07:12:07.737Z,60.42
2018-03-20T07:13:07.771Z,60.80
2018-03-20T07:14:07.743Z,61.74
2018-03-20T07:15:07.832Z,61.27
2018-03-20T07:16:07.769Z,59.88
2018-03-20T07:17:07.813Z,58.37
2018-03-20T07:18:07.793Z,58.44
2018-03-20T07:19:07.808Z,58.81
2018-03-20T07:20:07.811Z,59.38
2018-03-20T07:21:07.828Z,59.03
2018-03-20T07:22:07.841Z,58.81
2018-03-20T07:23:07.850Z,59.95
2018-03-20T07:24:07.889Z,59.79
2018-03-20T07:25:07.878Z,59.41
2018-03-20T07:26:07.893Z,58.84
2018-03-20T07:27:07.898Z,58.65
2018-03-20T07:28:07.909Z,58.94
2018-03-20T07:29:07.926Z,58.75
2018-03-20T07:30:07.934Z,59.41
2018-03-20T07:31:07.947Z,59.60
2018-03-20T07:32:07.962Z,59.41
2018-03-20T07:33:07.970Z,58.75
2018-03-20T07:34:07.980Z,58.94
2018-03-20T07:35:07.995Z,58.65
2018-03-20T07:36:08.005Z,58.65
2018-03-20T07:37:08.016Z,57.90
2018-03-20T07:38:08.146Z,57.90
2018-03-20T07:39:08.039Z,57.42
2018-03-20T07:40:08.057Z,57.23
2018-03-20T07:41:08.063Z,57.90
2018-03-20T07:42:08.072Z,58.09
2018-03-20T07:43:08.099Z,58.09
2018-03-20T07:44:08.102Z,58.94
2018-03-20T07:45:08.111Z,58.65
2018-03-20T07:46:08.125Z,58.37
2018-03-20T07:47:08.134Z,57.90
2018-03-20T07:48:08.149Z,58.09
2018-03-20T07:49:08.163Z,58.18
2018-03-20T07:50:08.174Z,57.99
2018-03-20T07:51:08.187Z,57.99
2018-03-20T07:52:08.202Z,57.99
2018-03-20T07:53:08.213Z,57.26
2018-03-20T07:54:08.245Z,56.60
2018-03-20T07:55:08.245Z,55.37
2018-03-20T07:56:08.252Z,54.33
2018-03-20T07:57:08.261Z,54.21
2018-03-20T07:58:08.272Z,54.68
2018-03-20T07:59:08.280Z,54.96
2018-03-20T08:00:08.303Z,55.34
2018-03-20T08:01:08.307Z,55.15
2018-03-20T08:02:08.324Z,55.25
2018-03-20T08:03:08.334Z,54.39
2018-03-20T08:04:08.346Z,54.21
2018-03-20T08:05:08.358Z,54.21
2018-03-20T08:06:08.365Z,53.55
2018-03-20T08:07:08.381Z,52.98
2018-03-20T08:08:08.398Z,51.84
2018-03-20T08:09:08.411Z,51.75
2018-03-20T08:10:08.470Z,51.46
2018-03-20T08:11:08.432Z,51.37
2018-03-20T08:12:08.453Z,51.37
2018-03-20T08:13:08.508Z,51.65
2018-03-20T08:14:08.477Z,51.18
2018-03-20T08:15:08.486Z,51.46
2018-03-20T08:16:08.490Z,51.65
2018-03-20T08:17:08.501Z,51.75
2018-03-20T08:18:08.518Z,51.46
2018-03-20T08:19:08.559Z,51.56
2018-03-20T08:20:08.555Z,51.30
2018-03-20T08:21:08.561Z,51.28
2018-03-20T08:22:08.567Z,52.25
2018-03-20T08:23:08.589Z,51.49
2018-03-20T08:24:08.599Z,51.39
2018-03-20T08:25:08.610Z,51.11
2018-03-20T08:26:08.622Z,50.73
2018-03-20T08:27:08.634Z,50.54
2018-03-20T08:28:08.645Z,50.26
2018-03-20T08:29:08.662Z,49.60
2018-03-20T08:30:08.667Z,49.12
2018-03-20T08:31:08.684Z,48.93
2018-03-20T08:32:08.694Z,49.12
2018-03-20T08:33:08.711Z,48.84
2018-03-20T08:34:08.729Z,48.36
2018-03-20T08:35:08.735Z,48.55
2018-03-20T08:36:08.747Z,48.08
2018-03-20T08:37:08.924Z,47.99
2018-03-20T08:38:08.770Z,47.99
2018-03-20T08:39:08.788Z,48.08
2018-03-20T08:40:08.804Z,48.18
2018-03-20T08:41:08.810Z,48.27
2018-03-20T08:42:08.823Z,48.36
2018-03-20T08:43:08.845Z,48.29
2018-03-20T08:44:08.851Z,48.84
2018-03-20T08:45:08.868Z,48.68
2018-03-20T08:46:08.874Z,48.39
2018-03-20T08:47:08.892Z,48.08
2018-03-20T08:48:08.901Z,47.80
2018-03-20T08:49:09.050Z,47.80
2018-03-20T08:50:08.929Z,47.89
2018-03-20T08:51:08.941Z,48.65
2018-03-20T08:52:08.966Z,48.55
2018-03-20T08:53:08.968Z,48.29
2018-03-20T08:54:08.986Z,47.91
2018-03-20T08:55:08.996Z,47.34
2018-03-20T08:56:09.004Z,46.21
2018-03-20T08:57:09.020Z,45.64
2018-03-20T08:58:09.036Z,45.93
2018-03-20T08:59:09.056Z,45.90
2018-03-20T09:00:09.058Z,46.37
2018-03-20T09:01:09.104Z,46.00
2018-03-20T09:02:09.087Z,46.09
2018-03-20T09:03:09.098Z,46.12
2018-03-20T09:04:09.114Z,45.83
2018-03-20T09:05:09.123Z,45.83
2018-03-20T09:06:09.151Z,45.83
2018-03-20T09:07:09.157Z,45.83
2018-03-20T09:08:09.169Z,46.02
2018-03-20T09:09:09.178Z,46.12
2018-03-20T09:10:09.194Z,46.12
2018-03-20T09:11:09.208Z,45.83
2018-03-20T09:12:09.216Z,46.02
2018-03-20T09:13:09.234Z,46.02
2018-03-20T09:14:09.248Z,45.83
2018-03-20T09:15:09.261Z,46.04
2018-03-20T09:16:09.285Z,45.76
2018-03-20T09:17:09.292Z,45.95
2018-03-20T09:18:09.301Z,45.57
2018-03-20T09:19:09.310Z,44.81
2018-03-20T09:20:09.331Z,44.81
2018-03-20T09:21:09.340Z,45.67
2018-03-20T09:22:09.360Z,45.38
2018-03-20T09:23:09.369Z,45.57
2018-03-20T09:24:09.379Z,45.95
2018-03-20T09:25:09.398Z,46.14
2018-03-20T09:26:09.409Z,45.57
2018-03-20T09:27:09.422Z,44.81
2018-03-20T09:28:09.435Z,44.81
2018-03-20T09:29:09.444Z,44.51
2018-03-20T09:30:09.459Z,44.79
2018-03-20T09:31:09.480Z,45.10
2018-03-20T09:32:09.488Z,45.76
2018-03-20T09:33:09.513Z,45.19
2018-03-20T09:34:09.518Z,44.62
2018-03-20T09:35:09.532Z,43.96
2018-03-20T09:36:09.543Z,43.20
2018-03-20T09:37:09.587Z,43.39
2018-03-20T09:38:09.579Z,43.68
2018-03-20T09:39:09.584Z,43.37
2018-03-20T09:40:09.600Z,42.61
2018-03-20T09:41:09.614Z,42.43
2018-03-20T09:42:09.627Z,42.44
2018-03-20T09:43:09.652Z,41.88
2018-03-20T09:44:09.654Z,41.50
2018-03-20T09:45:09.670Z,41.02
2018-03-20T09:46:09.679Z,40.45
2018-03-20T09:47:09.701Z,40.36
2018-03-20T09:48:09.711Z,39.79
2018-03-20T09:49:09.772Z,39.22
2018-03-20T09:50:09.852Z,38.75
2018-03-20T09:51:09.752Z,38.75
2018-03-20T09:52:09.775Z,38.58
2018-03-20T09:53:09.780Z,38.67
2018-03-20T09:54:09.796Z,38.86
2018-03-20T09:55:09.830Z,38.86
2018-03-20T09:56:09.841Z,38.29
2018-03-20T09:57:09.847Z,38.29
2018-03-20T09:58:09.857Z,37.92
2018-03-20T09:59:09.871Z,38.10
2018-03-20T10:00:09.928Z,37.73
2018-03-20T10:01:09.900Z,37.16
2018-03-20T10:02:09.923Z,37.25
2018-03-20T10:03:09.927Z,37.61
2018-03-20T10:04:09.942Z,38.46
2018-03-20T10:05:09.976Z,38.67
2018-03-20T10:06:09.966Z,39.43
2018-03-20T10:07:10.003Z,39.62
2018-03-20T10:08:09.994Z,39.45
2018-03-20T10:09:10.022Z,39.17
2018-03-20T10:10:10.026Z,39.26
2018-03-20T10:11:10.119Z,39.17
2018-03-20T10:12:10.057Z,39.26
2018-03-20T10:13:10.156Z,38.77
2018-03-20T10:14:10.084Z,38.86
2018-03-20T10:15:10.100Z,38.86
2018-03-20T10:16:10.117Z,38.77
2018-03-20T10:17:10.130Z,38.20
2018-03-20T10:18:10.147Z,37.63
2018-03-20T10:19:10.160Z,37.73
2018-03-20T10:20:10.216Z,37.08
2018-03-20T10:21:10.189Z,37.18
2018-03-20T10:22:10.210Z,37.65
2018-03-20T10:23:10.216Z,38.39
2018-03-20T10:24:10.236Z,38.69
2018-03-20T10:25:10.253Z,38.89
2018-03-20T10:26:10.266Z,38.69
2018-03-20T10:27:10.287Z,38.31
2018-03-20T10:28:10.298Z,38.79
2018-03-20T10:29:10.315Z,39.17
2018-03-20T10:30:10.328Z,39.05
2018-03-20T10:31:10.346Z,39.24
2018-03-20T10:32:10.409Z,39.45
2018-03-20T10:33:10.373Z,39.17
2018-03-20T10:34:10.386Z,38.79
2018-03-20T10:35:10.408Z,38.89
2018-03-20T10:36:10.416Z,38.31
2018-03-20T10:37:10.434Z,38.69
2018-03-20T10:38:10.458Z,38.79
2018-03-20T10:39:10.535Z,38.89
2018-03-20T10:40:10.481Z,38.98
2018-03-20T10:41:10.529Z,38.03
2018-03-20T10:42:10.518Z,37.55
2018-03-20T10:43:10.531Z,37.46
2018-03-20T10:44:10.549Z,37.84
2018-03-20T10:45:10.560Z,37.65
2018-03-20T10:46:10.577Z,37.95
2018-03-20T10:47:10.605Z,37.19
2018-03-20T10:48:10.612Z,36.82
2018-03-20T10:49:10.621Z,37.01
2018-03-20T10:50:10.642Z,36.82
2018-03-20T10:51:10.705Z,35.11
2018-03-20T10:52:10.670Z,33.86
2018-03-20T10:53:10.683Z,32.62
2018-03-20T10:54:10.703Z,33.48
2018-03-20T10:55:10.781Z,33.19
2018-03-20T10:56:10.731Z,33.19
2018-03-20T10:57:10.750Z,33.29
2018-03-20T10:58:10.765Z,33.38
2018-03-20T10:59:10.779Z,33.57
2018-03-20T11:00:10.827Z,33.86
2018-03-20T11:01:10.818Z,34.82
2018-03-20T11:02:10.830Z,34.73
2018-03-20T11:03:10.843Z,33.59
2018-03-20T11:04:10.860Z,33.50
2018-03-20T11:05:10.882Z,33.59
2018-03-20T11:06:10.893Z,33.30
2018-03-20T11:07:10.921Z,32.92
2018-03-20T11:08:10.924Z,32.64
2018-03-20T11:09:10.941Z,33.00
2018-03-20T11:10:10.955Z,31.96
2018-03-20T11:11:10.974Z,33.00
2018-03-20T11:12:10.990Z,33.57
2018-03-20T11:13:11.004Z,33.38
2018-03-20T11:14:11.027Z,33.10
2018-03-20T11:15:11.045Z,32.91
2018-03-20T11:16:11.055Z,33.76
2018-03-20T11:17:11.070Z,33.48
2018-03-20T11:18:11.087Z,33.29
2018-03-20T11:19:11.187Z,33.29
2018-03-20T11:20:11.116Z,33.57
2018-03-20T11:21:11.133Z,33.30
2018-03-20T11:22:11.151Z,32.92
2018-03-20T11:23:11.174Z,32.26
2018-03-20T11:24:11.184Z,32.45
2018-03-20T11:25:11.206Z,32.17
2018-03-20T11:26:11.219Z,32.15
2018-03-20T11:27:11.228Z,32.34
2018-03-20T11:28:11.246Z,33.38
2018-03-20T11:29:11.263Z,33.67
2018-03-20T11:30:11.279Z,34.90
2018-03-20T11:31:11.296Z,34.80
2018-03-20T11:32:11.311Z,34.71
2018-03-20T11:33:11.324Z,34.14
2018-03-20T11:34:11.367Z,34.05
2018-03-20T11:35:11.408Z,33.87
2018-03-20T11:36:11.373Z,33.67
2018-03-20T11:37:11.393Z,33.69
2018-03-20T11:38:11.403Z,33.30
2018-03-20T11:39:11.423Z,33.11
2018-03-20T11:40:11.489Z,33.02
2018-03-20T11:41:11.453Z,32.54
2018-03-20T11:42:11.481Z,32.26
2018-03-20T11:43:11.484Z,32.06
2018-03-20T11:44:11.504Z,32.45
2018-03-20T11:45:11.521Z,32.83
2018-03-20T11:46:11.532Z,32.17
2018-03-20T11:47:11.553Z,32.45
2018-03-20T11:48:11.574Z,32.62
2018-03-20T11:49:11.583Z,32.71
2018-03-20T11:50:11.593Z,34.05
2018-03-20T11:51:11.612Z,34.90
2018-03-20T11:52:11.642Z,35.57
2018-03-20T11:53:11.647Z,35.38
2018-03-20T11:54:11.664Z,35.94
2018-03-20T11:55:11.683Z,36.61
2018-03-20T11:56:11.696Z,36.89
2018-03-20T11:57:11.709Z,36.80
2018-03-20T11:58:11.725Z,37.08
2018-03-20T11:59:11.746Z,37.37
2018-03-20T12:00:11.767Z,37.93
2018-03-20T12:01:11.777Z,38.67
2018-03-20T12:02:11.798Z,39.24
2018-03-20T12:03:11.801Z,40.00
2018-03-20T12:04:11.819Z,40.78
2018-03-20T12:05:11.838Z,40.02
2018-03-20T12:06:11.850Z,40.12
2018-03-20T12:07:11.872Z,39.62
2018-03-20T12:08:11.887Z,40.09
2018-03-20T12:09:11.907Z,40.28
2018-03-20T12:10:11.913Z,40.38
2018-03-20T12:11:11.932Z,40.09
2018-03-20T12:12:11.945Z,40.47
2018-03-20T12:13:11.964Z,40.31
2018-03-20T12:14:11.980Z,40.69
2018-03-20T12:15:12.000Z,41.54
2018-03-20T12:16:12.010Z,42.01
2018-03-20T12:17:12.027Z,42.85
2018-03-20T12:18:12.040Z,44.17
2018-03-20T12:19:12.051Z,44.84
2018-03-20T12:20:12.070Z,44.84
2018-03-20T12:21:12.087Z,44.95
2018-03-20T12:22:12.095Z,44.74
2018-03-20T12:23:12.114Z,44.65
2018-03-20T12:24:12.128Z,44.65
2018-03-20T12:25:12.161Z,46.07
2018-03-20T12:26:12.158Z,46.28
2018-03-20T12:27:12.174Z,46.94
2018-03-20T12:28:12.187Z,49.48
2018-03-20T12:29:12.211Z,51.47
2018-03-20T12:30:12.220Z,53.56
2018-03-20T12:31:12.237Z,53.65
2018-03-20T12:32:12.263Z,52.35
2018-03-20T12:33:12.266Z,52.42
2018-03-20T12:34:12.281Z,52.54
2018-03-20T12:35:12.296Z,53.18
2018-03-20T12:36:12.310Z,54.88
2018-03-20T12:37:12.326Z,55.38
2018-03-20T12:38:12.339Z,55.93
2018-03-20T12:39:12.360Z,56.78
2018-03-20T12:40:12.374Z,57.73
2018-03-20T12:41:12.436Z,58.48
2018-03-20T12:42:12.412Z,60.76
2018-03-20T12:43:12.415Z,62.72
2018-03-20T12:44:12.456Z,63.48
2018-03-20T12:45:12.448Z,62.66
2018-03-20T12:46:12.479Z,61.61
2018-03-20T12:47:12.471Z,61.71
2018-03-20T12:48:12.482Z,60.67
2018-03-20T12:49:12.498Z,60.10
2018-03-20T12:50:12.511Z,59.72
2018-03-20T12:51:12.533Z,59.72
2018-03-20T12:52:12.567Z,60.00